La Plume, Pennsylvania
Current Conditions -  °F | °C
As of 4:54 PM on Sunday 21 Dec 2014 (Local Time) from KAVP Reporting Station
Overcast Overcast  
Wind Chill: 23°   Ceiling: 2400
Heat Index: 30°   Visibility: 10mi
Dew Point: 19°   Wind: 7mph
Humidity: 64%   Direction: 340°NNW
Pressure: 30.28"   Gusts: NA
Location:  41.56°N, 75.75°W
Report Text: KAVP 212154Z AUTO 34006KT 10SM OVC024 M01/M07 A3028 RMK AO2 SLP264 T10111072
Loading
Personal Weather Stations






























Interactive Weather Map New forecast layout! Learn more

10-Day Weather Forecast

Advertisements
Track Severe Weather on mobile